Time;durP1;ratioP1;P1;durP2;ratioP2;P2;SDS_P1;SDS_P2;PMS_P1;PMS_P2;Temp;Humidity;BMP_temperature;BMP_pressure;BME280_temperature;BME280_humidity;BME280_pressure;Samples;Min_cycle;Max_cycle;Signal;HPM_P1;HPM_P2
2022/12/21 00:02:11;;;;;;;7.05;3.20;;;;;;;7.21;91.18;97093.03;5044586;28;20052;-66
2022/12/21 00:04:38;;;;;;;7.68;3.13;;;;;;;7.19;91.74;97104.03;5046626;28;20037;-66
2022/12/21 00:07:04;;;;;;;6.25;2.95;;;;;;;7.24;91.74;97111.41;5045931;28;20052;-66
2022/12/21 00:09:33;;;;;;;6.05;3.00;;;;;;;7.39;91.50;97100.13;5044889;28;20523;-66
2022/12/21 00:12:00;;;;;;;8.65;3.33;;;;;;;7.51;90.92;97094.69;5043041;28;20114;-66
2022/12/21 00:14:26;;;;;;;6.03;2.90;;;;;;;7.49;90.86;97099.53;5045982;28;20060;-66
2022/12/21 00:16:53;;;;;;;7.13;3.20;;;;;;;7.50;90.93;97098.47;5045097;28;20049;-66
2022/12/21 00:19:20;;;;;;;6.75;3.33;;;;;;;7.43;91.43;97093.22;5035882;28;20123;-66
2022/12/21 00:21:46;;;;;;;5.22;2.90;;;;;;;7.42;91.57;97102.34;5044338;28;20095;-66
2022/12/21 00:24:13;;;;;;;7.60;3.38;;;;;;;7.38;92.14;97096.59;5046065;28;20076;-66
2022/12/21 00:26:39;;;;;;;5.50;3.00;;;;;;;7.45;91.72;97093.81;5045056;28;20045;-66
2022/12/21 00:29:06;;;;;;;5.43;2.97;;;;;;;7.59;90.83;97094.31;5031578;28;20053;-66
2022/12/21 00:31:35;;;;;;;6.82;3.20;;;;;;;7.52;91.37;97101.75;5042233;28;20052;-66
2022/12/21 00:34:02;;;;;;;7.90;3.10;;;;;;;7.46;92.01;97100.00;5046308;28;20053;-66
2022/12/21 00:36:31;;;;;;;4.13;2.40;;;;;;;7.53;92.12;97100.69;5042558;28;20061;-66
2022/12/21 00:38:58;;;;;;;5.13;2.75;;;;;;;7.49;92.43;97096.84;5045993;28;20045;-66
2022/12/21 00:41:27;;;;;;;4.80;2.75;;;;;;;7.61;91.64;97105.69;5042995;28;20132;-66
2022/12/21 00:43:55;;;;;;;5.75;3.15;;;;;;;7.55;92.68;97101.25;5040143;28;20050;-66
2022/12/21 00:46:24;;;;;;;5.55;2.92;;;;;;;7.57;92.49;97101.03;5035396;28;20490;-66
2022/12/21 00:48:52;;;;;;;7.43;3.50;;;;;;;7.63;92.16;97098.19;5034125;28;20049;-66
2022/12/21 00:51:21;;;;;;;8.27;3.28;;;;;;;7.57;93.32;97099.16;5039424;28;20519;-66
2022/12/21 00:53:49;;;;;;;6.65;3.30;;;;;;;7.64;93.39;97101.72;5024826;28;20046;-66
2022/12/21 00:56:17;;;;;;;7.25;3.35;;;;;;;7.62;93.79;97093.84;5026185;28;20033;-67
2022/12/21 00:58:45;;;;;;;5.00;2.90;;;;;;;7.63;94.06;97100.06;5024269;28;20037;-66
2022/12/21 01:01:16;;;;;;;5.40;3.20;;;;;;;7.51;94.94;97094.69;5034931;28;20554;-67
2022/12/21 01:03:43;;;;;;;5.40;2.75;;;;;;;7.53;95.51;97095.31;5045571;28;20542;-67
2022/12/21 01:06:13;;;;;;;4.60;2.58;;;;;;;7.45;95.88;97090.28;5045541;28;20065;-66
2022/12/21 01:08:40;;;;;;;5.95;2.90;;;;;;;7.41;96.26;97088.06;5044722;28;20120;-66
2022/12/21 01:11:07;;;;;;;6.03;2.90;;;;;;;7.33;97.14;97087.63;5043547;28;20536;-65
2022/12/21 01:13:33;;;;;;;6.57;3.15;;;;;;;7.32;97.96;97088.66;5049222;28;20119;-66
2022/12/21 01:16:00;;;;;;;6.72;3.10;;;;;;;7.34;98.64;97079.28;5049676;28;20516;-65
2022/12/21 01:18:26;;;;;;;5.65;2.92;;;;;;;7.40;99.11;97082.91;5038488;28;20041;-66
2022/12/21 01:20:54;;;;;;;5.95;2.95;;;;;;;7.47;99.68;97080.06;5047975;28;20065;-66
2022/12/21 01:23:22;;;;;;;5.60;2.65;;;;;;;7.61;99.57;97077.94;5048886;28;20416;-66
2022/12/21 01:25:50;;;;;;;5.13;2.55;;;;;;;7.71;99.56;97083.53;5049312;28;20044;-66
2022/12/21 01:28:16;;;;;;;6.20;2.53;;;;;;;7.80;99.75;97083.94;5049263;28;20048;-66
2022/12/21 01:30:45;;;;;;;4.75;2.67;;;;;;;7.76;100.00;97082.78;5046239;28;19989;-66
2022/12/21 01:33:17;;;;;;;4.43;2.38;;;;;;;7.88;100.00;97083.56;5048245;28;20088;-66
2022/12/21 01:35:44;;;;;;;5.32;2.20;;;;;;;8.03;100.00;97080.31;5048919;28;20643;-66
2022/12/21 01:38:13;;;;;;;6.10;2.28;;;;;;;7.94;100.00;97085.31;5047114;28;20049;-66
2022/12/21 01:40:40;;;;;;;4.35;2.53;;;;;;;8.00;100.00;97082.69;5047572;28;20044;-66
2022/12/21 01:43:37;;;;;;;5.78;2.35;;;;;;;7.99;100.00;97086.47;5047857;28;20051;-66
2022/12/21 01:46:08;;;;;;;4.85;2.10;;;;;;;7.96;100.00;97085.03;5046463;28;20045;-66
2022/12/21 01:48:42;;;;;;;4.47;2.13;;;;;;;7.97;100.00;97081.31;5031579;28;20051;-66
2022/12/21 01:51:11;;;;;;;5.72;1.92;;;;;;;8.05;100.00;97075.53;5045324;28;20044;-66
2022/12/21 01:53:43;;;;;;;6.57;2.03;;;;;;;8.03;100.00;97060.63;5043623;28;20131;-66
2022/12/21 01:56:13;;;;;;;7.15;2.17;;;;;;;8.06;100.00;97070.94;5067745;28;20411;-66
2022/12/21 01:58:40;;;;;;;3.45;1.98;;;;;;;8.03;100.00;97077.63;5059539;28;20037;-66
2022/12/21 02:01:07;;;;;;;4.05;2.25;;;;;;;8.09;100.00;97073.16;5045269;28;20063;-66
2022/12/21 02:03:40;;;;;;;9.25;2.53;;;;;;;8.12;100.00;97069.13;5047460;28;20443;-66
2022/12/21 02:06:23;;;;;;;4.00;2.03;;;;;;;8.08;100.00;97068.81;5038901;28;20055;-66
2022/12/21 02:08:49;;;;;;;4.45;2.10;;;;;;;8.13;100.00;97062.69;5050533;28;20051;-66
2022/12/21 02:11:17;;;;;;;4.68;1.92;;;;;;;8.20;100.00;97066.88;5045766;28;20095;-66
2022/12/21 02:13:43;;;;;;;4.30;1.80;;;;;;;8.20;100.00;97071.44;5044234;28;20091;-67
2022/12/21 02:16:45;;;;;;;5.75;2.13;;;;;;;8.23;100.00;97062.88;5048364;28;20037;-66
2022/12/21 02:19:35;;;;;;;4.10;1.90;;;;;;;8.33;100.00;97060.31;5037916;28;20109;-66
2022/12/21 02:22:15;;;;;;;4.07;1.80;;;;;;;8.42;100.00;97066.16;5046592;28;20397;-66
2022/12/21 02:24:51;;;;;;;5.05;1.70;;;;;;;8.45;100.00;97054.03;5046630;28;20071;-66
2022/12/21 02:28:08;;;;;;;4.28;1.60;;;;;;;8.45;100.00;97059.44;5047829;28;20099;-66
2022/12/21 02:31:33;;;;;;;4.22;1.90;;;;;;;8.32;100.00;97058.69;5031191;28;20080;-66
2022/12/21 02:34:28;;;;;;;6.93;1.80;;;;;;;8.32;100.00;97060.56;4969661;28;20141;-66
2022/12/21 02:37:11;;;;;;;4.60;1.88;;;;;;;8.32;100.00;97063.25;5046803;28;20057;-67
2022/12/21 02:40:12;;;;;;;4.85;1.80;;;;;;;8.33;100.00;97057.63;5046397;28;20051;-66
2022/12/21 02:46:21;;;;;;;2.42;1.40;;;;;;;8.33;100.00;97054.94;5048261;28;20045;-66
2022/12/21 02:48:54;;;;;;;3.83;1.50;;;;;;;8.37;100.00;97055.25;5039720;28;20119;-66
2022/12/21 02:51:51;;;;;;;2.78;1.48;;;;;;;8.34;100.00;97042.28;5025020;28;20041;-66
2022/12/21 02:54:19;;;;;;;3.55;1.60;;;;;;;8.30;100.00;97047.31;5034614;28;20095;-66
2022/12/21 02:56:46;;;;;;;4.43;1.38;;;;;;;8.38;100.00;97046.13;5048483;28;20040;-66
2022/12/21 02:59:16;;;;;;;4.45;1.85;;;;;;;8.31;100.00;97043.59;5045433;28;20049;-66
2022/12/21 03:02:01;;;;;;;3.25;1.55;;;;;;;8.39;100.00;97046.91;5028973;28;20037;-66
2022/12/21 03:05:02;;;;;;;5.15;2.03;;;;;;;8.37;100.00;97040.97;5047086;28;20516;-66
2022/12/21 03:07:57;;;;;;;2.80;1.40;;;;;;;8.42;100.00;97041.84;5028333;28;20049;-66
2022/12/21 03:10:52;;;;;;;3.58;1.50;;;;;;;8.47;100.00;97041.09;5041675;28;20041;-66
2022/12/21 03:13:32;;;;;;;3.00;1.50;;;;;;;8.50;100.00;97037.91;5027012;28;20045;-67
2022/12/21 03:16:17;;;;;;;3.35;1.50;;;;;;;8.30;100.00;97051.91;5037971;28;20653;-66
2022/12/21 03:19:00;;;;;;;3.92;1.45;;;;;;;8.27;100.00;97044.31;5037434;28;20051;-66
2022/12/21 03:21:45;;;;;;;3.40;1.67;;;;;;;8.31;100.00;97040.06;5045073;28;20033;-66
2022/12/21 03:24:34;;;;;;;3.72;1.63;;;;;;;8.33;100.00;97044.13;5045660;28;20041;-66
2022/12/21 03:27:21;;;;;;;3.00;1.40;;;;;;;8.33;100.00;97036.03;5042491;28;20041;-66
2022/12/21 03:29:52;;;;;;;3.15;1.42;;;;;;;8.34;100.00;97036.88;5046130;28;20071;-66
2022/12/21 03:32:34;;;;;;;1.92;1.17;;;;;;;8.43;100.00;97030.00;5043448;28;20044;-66
2022/12/21 03:35:04;;;;;;;4.63;1.40;;;;;;;8.55;100.00;97038.03;5045670;28;20574;-66
2022/12/21 03:37:36;;;;;;;2.53;1.10;;;;;;;8.51;100.00;97033.34;5045203;28;20051;-66
2022/12/21 03:40:27;;;;;;;4.95;1.60;;;;;;;8.52;100.00;97029.59;5045676;28;20646;-66
2022/12/21 03:43:06;;;;;;;3.72;1.45;;;;;;;8.42;100.00;97035.63;5045925;28;20073;-66
2022/12/21 03:45:39;;;;;;;3.22;1.48;;;;;;;8.43;100.00;97032.69;5046014;28;20504;-66
2022/12/21 03:48:29;;;;;;;3.33;1.60;;;;;;;8.43;100.00;97034.56;5036504;28;20045;-66
2022/12/21 03:51:02;;;;;;;4.43;1.58;;;;;;;8.47;100.00;97027.63;5024169;28;20124;-66
2022/12/21 03:53:38;;;;;;;2.40;1.30;;;;;;;8.43;100.00;97032.69;5026947;28;20046;-66
2022/12/21 03:56:10;;;;;;;3.00;1.60;;;;;;;8.46;100.00;97028.69;5058727;28;20049;-66
2022/12/21 03:58:36;;;;;;;3.78;1.65;;;;;;;8.33;100.00;97025.25;5045810;28;20041;-66
2022/12/21 04:01:19;;;;;;;4.05;1.55;;;;;;;8.39;100.00;97030.72;5044995;28;20041;-66
2022/12/21 04:03:53;;;;;;;4.35;1.50;;;;;;;8.43;100.00;97023.78;5046142;28;20063;-66
2022/12/21 04:06:24;;;;;;;3.17;1.42;;;;;;;8.36;100.00;97018.53;5045930;28;20132;-66
2022/12/21 04:08:51;;;;;;;3.25;1.50;;;;;;;8.35;100.00;97021.50;5045252;28;20049;-66
2022/12/21 04:14:03;;;;;;;3.13;1.40;;;;;;;8.28;100.00;97018.97;5045889;28;20098;-66
2022/12/21 04:16:29;;;;;;;3.35;1.50;;;;;;;8.25;100.00;97025.66;5044003;28;21023;-66
2022/12/21 04:22:04;;;;;;;4.28;1.73;;;;;;;8.23;100.00;97027.81;5002520;28;20501;-66
2022/12/21 04:30:00;;;;;;;2.60;1.38;;;;;;;8.34;100.00;97018.00;5043128;28;20044;-66
2022/12/21 04:32:27;;;;;;;2.63;1.20;;;;;;;8.47;100.00;97024.91;5044431;28;20037;-67
2022/12/21 04:34:54;;;;;;;3.35;1.40;;;;;;;8.43;100.00;97021.06;5045820;28;20053;-66
2022/12/21 04:37:33;;;;;;;4.22;1.45;;;;;;;8.39;100.00;97020.75;5045393;28;20037;-66
2022/12/21 04:40:01;;;;;;;2.80;1.38;;;;;;;8.39;100.00;97033.41;5037249;28;20052;-67
2022/12/21 04:42:28;;;;;;;2.85;1.50;;;;;;;8.39;100.00;97017.22;5024253;28;20065;-66
2022/12/21 04:44:54;;;;;;;4.13;1.45;;;;;;;8.39;100.00;97020.75;5025636;28;20079;-66
2022/12/21 04:47:21;;;;;;;2.50;1.20;;;;;;;8.37;100.00;97020.19;5036124;28;20054;-67
2022/12/21 04:49:47;;;;;;;2.47;1.23;;;;;;;8.50;100.00;97021.72;5039127;28;20061;-67
2022/12/21 04:52:14;;;;;;;2.72;1.30;;;;;;;8.63;100.00;97017.91;5043827;28;20289;-67
2022/12/21 04:54:40;;;;;;;3.90;1.67;;;;;;;8.58;100.00;97017.81;5053152;28;20496;-66
2022/12/21 04:57:07;;;;;;;1.88;1.17;;;;;;;8.54;100.00;97020.19;5054398;28;20569;-66
2022/12/21 04:59:33;;;;;;;3.67;1.50;;;;;;;8.44;100.00;97020.84;5045717;28;20041;-66
2022/12/21 05:02:00;;;;;;;3.15;1.65;;;;;;;8.41;100.00;97020.53;5044478;28;20132;-66
2022/12/21 05:04:26;;;;;;;1.70;1.00;;;;;;;8.46;100.00;97021.41;5043785;28;20068;-66
2022/12/21 05:06:54;;;;;;;2.40;1.20;;;;;;;8.36;100.00;97023.16;5045345;28;20076;-66
2022/12/21 05:09:22;;;;;;;3.20;1.60;;;;;;;8.44;100.00;97020.84;5041795;28;20045;-66
2022/12/21 05:11:48;;;;;;;3.97;1.80;;;;;;;8.33;100.00;97022.56;5037267;28;20416;-66
2022/12/21 05:14:15;;;;;;;4.38;1.45;;;;;;;8.30;100.00;97020.34;5037420;28;20451;-66
2022/12/21 05:16:41;;;;;;;3.63;1.63;;;;;;;8.31;100.00;97018.47;5041707;28;20041;-66
2022/12/21 05:19:08;;;;;;;3.47;1.33;;;;;;;8.31;100.00;97019.31;5034843;28;20036;-66
2022/12/21 05:21:35;;;;;;;4.55;2.05;;;;;;;8.27;100.00;97015.47;5040225;28;20061;-66
2022/12/21 05:24:01;;;;;;;5.75;1.90;;;;;;;8.26;100.00;97015.69;5035830;28;20129;-66
2022/12/21 05:26:28;;;;;;;4.88;2.25;;;;;;;8.28;100.00;97013.56;5035843;28;20042;-66
2022/12/21 05:28:54;;;;;;;3.88;1.85;;;;;;;8.26;100.00;97005.72;5044918;28;20128;-66
2022/12/21 05:31:21;;;;;;;3.67;1.52;;;;;;;8.36;100.00;97004.25;5043914;28;20516;-66
2022/12/21 05:33:48;;;;;;;4.55;1.90;;;;;;;8.35;100.00;96998.03;5045099;28;20523;-66
2022/12/21 05:36:16;;;;;;;4.53;1.60;;;;;;;8.31;100.00;97003.13;5045470;28;20415;-66
2022/12/21 05:38:44;;;;;;;2.75;1.15;;;;;;;8.37;100.00;97001.28;5044554;28;20044;-67
2022/12/21 05:41:12;;;;;;;3.65;1.33;;;;;;;8.41;100.00;97002.44;5043314;28;20041;-66
2022/12/21 05:43:39;;;;;;;3.13;1.60;;;;;;;8.37;100.00;97001.28;5045099;28;20509;-66
2022/12/21 05:46:09;;;;;;;2.67;1.30;;;;;;;8.38;100.00;97004.81;5044802;28;20044;-66
2022/12/21 05:48:36;;;;;;;4.78;1.55;;;;;;;8.53;100.00;97005.09;5035021;28;20103;-67
2022/12/21 05:51:11;;;;;;;5.30;1.80;;;;;;;8.58;100.00;96997.06;5043965;28;20408;-66
2022/12/21 05:53:43;;;;;;;5.07;1.98;;;;;;;8.51;100.00;96999.06;5045339;28;20091;-63
2022/12/21 05:56:10;;;;;;;4.28;1.65;;;;;;;8.45;100.00;96991.97;5044675;28;20354;-63
2022/12/21 05:58:37;;;;;;;2.45;1.20;;;;;;;8.46;100.00;96994.44;5044880;28;20439;-64
2022/12/21 06:01:06;;;;;;;3.88;1.30;;;;;;;8.56;100.00;96996.47;5047303;28;20111;-64
2022/12/21 06:03:33;;;;;;;2.17;1.00;;;;;;;8.60;100.00;96988.72;5048886;28;20108;-62
2022/12/21 06:06:07;;;;;;;3.78;1.23;;;;;;;8.67;100.00;96992.03;5048274;28;20041;-64
2022/12/21 06:08:35;;;;;;;2.72;1.50;;;;;;;8.56;100.00;96993.78;5047743;28;20107;-63
2022/12/21 06:11:10;;;;;;;2.20;1.20;;;;;;;8.60;100.00;96991.41;5046470;28;20470;-64
2022/12/21 06:13:37;;;;;;;4.25;1.52;;;;;;;8.55;100.00;96989.44;5049047;28;20775;-63
2022/12/21 06:16:11;;;;;;;2.20;1.10;;;;;;;8.63;100.00;96999.03;5047442;28;20504;-64
2022/12/21 06:18:39;;;;;;;2.30;1.40;;;;;;;8.62;100.00;96991.97;5037751;28;20501;-63
2022/12/21 06:21:07;;;;;;;4.40;1.35;;;;;;;8.71;100.00;97001.25;5045774;28;20128;-63
2022/12/21 06:23:34;;;;;;;4.07;1.65;;;;;;;8.66;100.00;97001.19;5048353;28;20045;-63
2022/12/21 06:26:02;;;;;;;7.22;1.95;;;;;;;8.65;100.00;97004.97;5047186;28;20079;-64
2022/12/21 06:28:31;;;;;;;3.47;1.65;;;;;;;8.58;100.00;97004.31;5048023;28;20045;-63
2022/12/21 06:31:06;;;;;;;3.38;1.95;;;;;;;8.56;100.00;97001.06;5028612;28;20042;-63
2022/12/21 06:33:33;;;;;;;3.55;1.50;;;;;;;8.45;100.00;96997.38;5042946;28;20068;-63
2022/12/21 06:36:00;;;;;;;3.58;1.40;;;;;;;8.30;100.00;97006.84;5030248;28;20103;-63
2022/12/21 06:38:27;;;;;;;3.20;1.58;;;;;;;8.11;100.00;97016.28;5035670;28;20044;-64
2022/12/21 06:40:56;;;;;;;6.05;1.90;;;;;;;8.02;100.00;97013.16;5040483;28;20037;-63
2022/12/21 06:43:27;;;;;;;4.30;1.23;;;;;;;8.16;100.00;97005.56;5046748;28;20451;-63
2022/12/21 06:46:01;;;;;;;5.63;1.88;;;;;;;8.24;100.00;97026.72;5031833;28;20710;-63
2022/12/21 06:48:29;;;;;;;6.05;2.13;;;;;;;8.11;100.00;97017.06;5034949;28;20103;-63
2022/12/21 06:50:58;;;;;;;6.60;2.65;;;;;;;8.01;100.00;97019.63;5045900;28;20106;-62
2022/12/21 06:53:28;;;;;;;5.18;2.03;;;;;;;7.91;100.00;97021.09;5048477;28;20041;-63
2022/12/21 06:55:59;;;;;;;5.88;2.25;;;;;;;7.87;100.00;97019.09;5063229;28;20045;-63
2022/12/21 06:58:26;;;;;;;3.90;1.73;;;;;;;7.80;100.00;97014.69;5042194;28;20060;-63
2022/12/21 07:00:53;;;;;;;7.60;2.65;;;;;;;7.81;100.00;97016.31;5026200;28;20053;-64
2022/12/21 07:03:21;;;;;;;5.30;2.10;;;;;;;7.84;100.00;97019.56;5035004;28;20692;-63
2022/12/21 07:05:50;;;;;;;6.15;2.25;;;;;;;7.96;100.00;97022.22;5047653;28;20045;-63
2022/12/21 07:08:17;;;;;;;4.70;1.70;;;;;;;7.99;100.00;97029.84;5033955;28;20083;-63
2022/12/21 07:10:43;;;;;;;4.18;1.70;;;;;;;7.98;100.00;97023.63;5043287;28;20077;-63
2022/12/21 07:13:10;;;;;;;3.83;1.70;;;;;;;7.93;100.00;97026.22;5036156;28;20637;-62
2022/12/21 07:15:36;;;;;;;6.25;2.28;;;;;;;7.87;100.00;97025.31;5047090;28;20744;-63
2022/12/21 07:18:03;;;;;;;4.30;1.95;;;;;;;7.85;100.00;97027.44;5043034;28;20049;-63
2022/12/21 07:20:30;;;;;;;8.15;2.03;;;;;;;7.90;100.00;97024.00;5035459;28;20138;-63
2022/12/21 07:22:56;;;;;;;5.68;2.22;;;;;;;7.98;100.00;97033.56;5033971;28;20045;-64
2022/12/21 07:25:23;;;;;;;5.60;1.90;;;;;;;8.01;100.00;97033.09;5041953;28;20053;-63
2022/12/21 07:27:49;;;;;;;4.13;1.63;;;;;;;8.09;100.00;97032.69;5040002;28;20117;-63
2022/12/21 07:30:16;;;;;;;3.25;1.70;;;;;;;8.17;100.00;97036.84;5035657;28;20044;-63
2022/12/21 07:32:42;;;;;;;5.95;1.80;;;;;;;8.20;100.00;97037.19;5032717;28;20484;-63
2022/12/21 07:35:09;;;;;;;3.90;1.40;;;;;;;8.29;100.00;97034.09;5037440;28;20045;-65
2022/12/21 07:37:36;;;;;;;4.65;1.50;;;;;;;8.40;100.00;97032.38;5041677;28;20057;-65
2022/12/21 07:40:04;;;;;;;3.92;2.00;;;;;;;8.33;100.00;97029.81;5042047;28;20171;-65
2022/12/21 07:42:31;;;;;;;3.92;1.60;;;;;;;8.34;100.00;97034.19;5054771;28;20040;-63
2022/12/21 07:45:04;;;;;;;3.40;1.48;;;;;;;8.37;100.00;97041.75;5054006;28;20092;-63
2022/12/21 07:47:36;;;;;;;3.83;1.40;;;;;;;8.45;100.00;97045.94;5043115;28;20048;-63
2022/12/21 07:50:04;;;;;;;2.97;1.42;;;;;;;8.36;100.00;97042.03;5044949;28;20049;-64
2022/12/21 07:52:31;;;;;;;4.43;2.30;;;;;;;8.30;100.00;97049.22;5042453;28;20057;-65
2022/12/21 07:54:57;;;;;;;5.40;1.60;;;;;;;8.29;100.00;97055.69;5047837;28;20041;-65
2022/12/21 07:57:24;;;;;;;8.55;1.60;;;;;;;8.25;100.00;97051.84;5041152;28;20049;-65
2022/12/21 07:59:51;;;;;;;4.38;1.80;;;;;;;8.23;100.00;97048.56;5040874;28;20045;-64
2022/12/21 08:02:18;;;;;;;3.38;1.80;;;;;;;8.21;100.00;97051.50;5042517;28;20138;-64
2022/12/21 08:04:44;;;;;;;3.38;1.45;;;;;;;8.24;100.00;97055.56;5033616;28;20583;-65
2022/12/21 08:07:11;;;;;;;2.80;1.35;;;;;;;8.25;100.00;97046.44;5042529;28;20063;-65
2022/12/21 08:09:38;;;;;;;2.92;1.45;;;;;;;8.27;100.00;97049.69;5042725;28;20382;-65
2022/12/21 08:12:04;;;;;;;2.83;1.27;;;;;;;8.35;100.00;97051.16;5042063;28;20041;-65
2022/12/21 08:14:31;;;;;;;2.47;1.27;;;;;;;8.36;100.00;97056.31;5043390;28;20049;-65
2022/12/21 08:16:57;;;;;;;3.75;1.50;;;;;;;8.38;100.00;97051.50;5042686;28;20048;-65
2022/12/21 08:19:24;;;;;;;3.50;1.63;;;;;;;8.38;100.00;97056.91;5043744;28;20045;-65
2022/12/21 08:21:50;;;;;;;4.57;1.70;;;;;;;8.37;100.00;97068.72;5053801;28;20072;-64
2022/12/21 08:24:17;;;;;;;3.58;1.33;;;;;;;8.43;100.00;97066.94;5043054;28;20120;-65
2022/12/21 08:26:43;;;;;;;7.40;2.15;;;;;;;8.44;100.00;97069.41;5043296;28;20104;-64
2022/12/21 08:29:12;;;;;;;3.72;1.40;;;;;;;8.50;100.00;97073.00;5048977;28;20127;-64
2022/12/21 08:31:39;;;;;;;4.07;1.50;;;;;;;8.50;100.00;97070.31;5047339;28;20804;-65
2022/12/21 08:34:06;;;;;;;2.60;1.25;;;;;;;8.54;100.00;97070.66;5049538;28;20048;-65
2022/12/21 08:36:33;;;;;;;4.32;1.98;;;;;;;8.58;100.00;97064.53;5049844;28;20080;-64
2022/12/21 08:39:00;;;;;;;6.30;2.17;;;;;;;8.59;100.00;97068.06;5042909;28;20041;-64
2022/12/21 08:41:36;;;;;;;8.13;2.35;;;;;;;8.51;100.00;97066.53;5054560;28;20048;-64
2022/12/21 08:44:03;;;;;;;4.68;1.60;;;;;;;8.50;100.00;97073.00;5043536;28;20154;-64
2022/12/21 08:46:30;;;;;;;3.58;1.77;;;;;;;8.49;100.00;97071.38;5041921;28;20041;-64
2022/12/21 08:48:56;;;;;;;5.97;2.80;;;;;;;8.43;100.00;97073.16;5044128;28;20048;-64
2022/12/21 08:51:23;;;;;;;6.13;2.20;;;;;;;8.43;100.00;97077.72;5039090;28;20573;-64
2022/12/21 08:53:50;;;;;;;3.60;1.83;;;;;;;8.39;100.00;97068.50;5042484;28;20093;-64
2022/12/21 08:56:19;;;;;;;3.75;1.80;;;;;;;8.34;100.00;97071.94;5054064;28;20066;-64
2022/12/21 08:58:46;;;;;;;3.60;1.80;;;;;;;8.36;100.00;97077.91;5041042;28;20120;-64
2022/12/21 09:01:17;;;;;;;5.32;2.17;;;;;;;8.31;100.00;97065.16;5043160;28;20041;-64
2022/12/21 09:03:44;;;;;;;5.75;2.30;;;;;;;8.29;100.00;97064.56;5035601;28;20038;-64
2022/12/21 09:06:10;;;;;;;5.20;2.13;;;;;;;8.32;100.00;97072.19;5032333;28;20045;-64
2022/12/21 09:08:37;;;;;;;3.63;2.13;;;;;;;8.34;100.00;97066.56;5045255;28;20052;-64
2022/12/21 09:11:09;;;;;;;3.95;1.70;;;;;;;8.43;100.00;97065.06;5043396;28;20041;-64
2022/12/21 09:13:36;;;;;;;4.03;1.83;;;;;;;8.49;100.00;97067.84;5045474;28;20512;-64
2022/12/21 09:16:10;;;;;;;5.60;1.88;;;;;;;8.59;100.00;97076.16;5045238;28;20080;-64
2022/12/21 09:18:37;;;;;;;6.28;1.98;;;;;;;8.52;100.00;97087.03;5046131;28;20059;-64
2022/12/21 09:21:03;;;;;;;6.97;1.80;;;;;;;8.39;100.00;97081.97;5043735;28;20037;-64
2022/12/21 09:23:30;;;;;;;5.03;1.80;;;;;;;8.38;100.00;97086.59;5044442;28;20048;-64
2022/12/21 09:25:56;;;;;;;4.00;1.55;;;;;;;8.51;100.00;97080.03;5045187;28;20536;-64
2022/12/21 09:28:23;;;;;;;3.20;1.60;;;;;;;8.42;100.00;97074.22;5045094;28;20456;-64
2022/12/21 09:30:50;;;;;;;5.63;1.98;;;;;;;8.38;100.00;97070.41;5036675;28;20505;-64
2022/12/21 09:33:16;;;;;;;5.30;2.05;;;;;;;8.41;100.00;97077.19;5025867;28;20045;-64
2022/12/21 09:35:43;;;;;;;6.40;2.47;;;;;;;8.30;100.00;97085.09;5031925;28;20072;-64
2022/12/21 09:38:09;;;;;;;3.83;1.73;;;;;;;8.39;100.00;97087.38;5048482;28;20497;-64
2022/12/21 09:40:36;;;;;;;5.60;1.90;;;;;;;8.51;100.00;97087.31;5047113;28;20045;-63
2022/12/21 09:43:14;;;;;;;3.90;1.83;;;;;;;8.55;100.00;97092.00;5049340;28;20804;-64
2022/12/21 09:46:02;;;;;;;3.70;1.58;;;;;;;8.63;100.00;97098.06;5048625;28;20065;-65
2022/12/21 09:48:51;;;;;;;3.75;2.13;;;;;;;8.54;100.00;97106.56;5047678;28;20124;-64
2022/12/21 09:51:23;;;;;;;6.40;3.00;;;;;;;8.38;100.00;97105.47;5027492;28;20073;-64
2022/12/21 09:54:00;;;;;;;5.78;2.42;;;;;;;8.36;100.00;97099.47;5028181;28;20049;-64
2022/12/21 09:56:29;;;;;;;5.25;2.28;;;;;;;8.44;100.00;97107.16;5060178;28;20116;-64
2022/12/21 09:59:01;;;;;;;4.75;1.98;;;;;;;8.45;100.00;97099.91;5048462;28;20640;-64
2022/12/21 10:01:27;;;;;;;4.22;2.20;;;;;;;8.37;100.00;97092.22;5047433;28;20068;-64
2022/12/21 10:04:00;;;;;;;4.55;2.10;;;;;;;8.35;100.00;97091.63;5037420;28;20045;-64
2022/12/21 10:06:48;;;;;;;4.45;1.80;;;;;;;8.37;100.00;97098.41;5036493;28;20125;-64
2022/12/21 10:09:24;;;;;;;3.88;2.40;;;;;;;8.37;100.00;97095.72;5048272;28;20052;-64
2022/12/21 10:11:50;;;;;;;3.90;2.05;;;;;;;8.38;100.00;97102.75;5046735;28;20083;-64
2022/12/21 10:14:31;;;;;;;4.65;2.42;;;;;;;8.39;100.00;97093.59;5048070;28;20052;-64
2022/12/21 10:17:16;;;;;;;4.35;2.20;;;;;;;8.40;100.00;97099.81;5048735;28;20111;-64
2022/12/21 10:20:25;;;;;;;7.07;2.65;;;;;;;8.48;100.00;97099.44;5034537;28;20048;-64
2022/12/21 10:22:57;;;;;;;5.35;2.58;;;;;;;8.58;100.00;97106.88;5034182;28;20055;-64
2022/12/21 10:25:57;;;;;;;4.15;2.33;;;;;;;8.70;100.00;97109.50;5048737;28;20051;-65
2022/12/21 10:28:36;;;;;;;4.60;2.08;;;;;;;8.91;100.00;97117.91;5039389;28;20094;-64
2022/12/21 10:31:05;;;;;;;5.72;2.40;;;;;;;8.88;100.00;97103.00;5043191;28;20040;-64
2022/12/21 10:33:42;;;;;;;3.85;1.98;;;;;;;8.94;100.00;97091.22;5039180;28;20136;-64
2022/12/21 10:36:15;;;;;;;5.10;3.42;;;;;;;8.93;100.00;97088.78;5041225;28;20049;-64
2022/12/21 10:38:42;;;;;;;3.78;2.08;;;;;;;9.03;100.00;97091.59;5045676;28;20076;-63
2022/12/21 10:41:19;;;;;;;5.13;2.78;;;;;;;9.13;100.00;97088.25;5043734;28;20075;-64
2022/12/21 10:43:48;;;;;;;6.13;2.17;;;;;;;9.20;100.00;97079.94;5032841;28;20045;-64
2022/12/21 10:46:20;;;;;;;5.63;3.10;;;;;;;9.26;100.00;97078.13;5044099;28;20051;-65
2022/12/21 10:48:51;;;;;;;5.00;2.63;;;;;;;9.33;100.00;97078.78;5045930;28;20131;-65
2022/12/21 10:51:27;;;;;;;5.85;3.05;;;;;;;9.35;100.00;97080.16;5043464;28;20077;-65
2022/12/21 10:54:00;;;;;;;8.43;4.20;;;;;;;9.44;100.00;97077.81;5034391;28;20099;-65
2022/12/21 10:56:28;;;;;;;7.00;3.83;;;;;;;9.54;100.00;97076.31;5044261;28;20056;-65
2022/12/21 10:59:05;;;;;;;8.13;2.95;;;;;;;9.60;100.00;97070.72;5042702;28;20060;-65
2022/12/21 11:01:33;;;;;;;3.60;1.80;;;;;;;9.77;100.00;97075.22;5032101;28;20036;-65
2022/12/21 11:04:15;;;;;;;3.22;1.60;;;;;;;9.86;100.00;97081.81;5039636;28;20689;-65
2022/12/21 11:07:00;;;;;;;4.70;1.90;;;;;;;9.95;100.00;97082.16;5044349;28;20037;-65
2022/12/21 11:09:58;;;;;;;2.53;1.42;;;;;;;10.01;100.00;97086.56;5032972;28;20151;-65
2022/12/21 11:12:51;;;;;;;4.70;3.05;;;;;;;10.04;100.00;97079.81;5043996;28;20055;-65
2022/12/21 11:15:21;;;;;;;6.55;3.20;;;;;;;10.07;100.00;97087.44;5044184;28;20057;-65
2022/12/21 11:18:39;;;;;;;4.15;1.80;;;;;;;10.29;100.00;97086.53;5034026;28;20049;-65
2022/12/21 11:21:32;;;;;;;4.45;2.25;;;;;;;10.57;100.00;97087.34;5029597;28;20088;-65
2022/12/21 11:24:06;;;;;;;6.05;3.13;;;;;;;10.64;99.16;97082.53;5044790;28;20576;-65
2022/12/21 11:26:39;;;;;;;7.07;2.47;;;;;;;10.63;98.65;97082.78;5043182;28;20052;-65
2022/12/21 11:29:16;;;;;;;3.55;1.80;;;;;;;10.64;98.40;97076.28;5043925;28;20044;-65
2022/12/21 11:31:46;;;;;;;6.78;1.83;;;;;;;10.49;98.54;97077.81;5042622;28;20067;-65
2022/12/21 11:34:29;;;;;;;3.55;1.90;;;;;;;10.62;98.11;97064.91;5038622;28;20048;-65
2022/12/21 11:37:00;;;;;;;5.43;2.63;;;;;;;10.77;98.21;97059.56;5044153;28;20549;-65
2022/12/21 11:39:43;;;;;;;3.28;1.88;;;;;;;10.89;97.36;97061.28;5029090;28;20084;-65
2022/12/21 11:42:21;;;;;;;5.32;2.30;;;;;;;11.01;96.32;97063.78;5030160;28;20574;-65
2022/12/21 11:45:20;;;;;;;1.45;0.40;;;;;;;11.22;89.30;97058.47;5043248;28;20045;-65
2022/12/21 11:47:49;;;;;;;4.30;1.20;;;;;;;11.43;89.73;97062.91;5044012;28;20144;-65
2022/12/21 11:50:37;;;;;;;2.50;1.30;;;;;;;11.32;92.61;97055.81;5038925;28;20037;-65
2022/12/21 11:53:10;;;;;;;1.48;0.70;;;;;;;11.36;90.53;97047.97;5044075;28;20048;-65
2022/12/21 11:55:45;;;;;;;1.83;0.65;;;;;;;11.40;88.83;97057.22;5046423;28;20045;-65
2022/12/21 11:59:03;;;;;;;1.27;0.60;;;;;;;11.40;89.55;97052.59;5043339;28;20051;-65
2022/12/21 12:02:09;;;;;;;1.75;0.60;;;;;;;11.49;88.35;97052.06;5042953;28;20060;-65
2022/12/21 12:05:00;;;;;;;1.52;0.80;;;;;;;11.40;88.56;97040.94;5031026;28;20124;-65
2022/12/21 12:08:04;;;;;;;2.40;0.52;;;;;;;11.62;86.46;97045.34;5043140;28;20053;-66
2022/12/21 12:10:53;;;;;;;0.98;0.40;;;;;;;11.65;84.95;97039.41;5042516;28;20068;-65
2022/12/21 12:13:41;;;;;;;2.67;0.80;;;;;;;11.54;87.58;97036.63;5043284;28;20073;-65
2022/12/21 12:16:31;;;;;;;2.75;0.80;;;;;;;11.44;86.81;97036.63;5043111;28;20051;-65